sensor_id;sensor_type;location;lat;lon;timestamp;P1;durP1;ratioP1;P2;durP2;ratioP2
29422;SDS011;16399;51.686;8.684;2022-09-30T00:00:26;6.70;;;4.40;;
29422;SDS011;16399;51.686;8.684;2022-09-30T00:03:28;8.58;;;4.55;;
29422;SDS011;16399;51.686;8.684;2022-09-30T00:06:31;7.12;;;4.58;;
29422;SDS011;16399;51.686;8.684;2022-09-30T00:09:35;8.30;;;4.67;;
29422;SDS011;16399;51.686;8.684;2022-09-30T00:12:38;7.72;;;4.97;;
29422;SDS011;16399;51.686;8.684;2022-09-30T00:15:44;8.90;;;4.65;;
29422;SDS011;16399;51.686;8.684;2022-09-30T00:18:45;8.58;;;4.87;;
29422;SDS011;16399;51.686;8.684;2022-09-30T00:21:48;8.50;;;4.50;;
29422;SDS011;16399;51.686;8.684;2022-09-30T00:24:50;10.55;;;4.72;;
29422;SDS011;16399;51.686;8.684;2022-09-30T00:27:53;6.92;;;4.30;;
29422;SDS011;16399;51.686;8.684;2022-09-30T00:30:58;6.75;;;4.22;;
29422;SDS011;16399;51.686;8.684;2022-09-30T00:34:02;8.20;;;4.70;;
29422;SDS011;16399;51.686;8.684;2022-09-30T00:37:08;8.65;;;4.72;;
29422;SDS011;16399;51.686;8.684;2022-09-30T00:40:12;7.25;;;4.10;;
29422;SDS011;16399;51.686;8.684;2022-09-30T00:43:15;5.92;;;4.05;;
29422;SDS011;16399;51.686;8.684;2022-09-30T00:49:30;8.45;;;4.40;;
29422;SDS011;16399;51.686;8.684;2022-09-30T00:52:33;7.25;;;4.80;;
29422;SDS011;16399;51.686;8.684;2022-09-30T00:58:51;7.00;;;4.30;;
29422;SDS011;16399;51.686;8.684;2022-09-30T01:01:54;6.15;;;4.20;;
29422;SDS011;16399;51.686;8.684;2022-09-30T01:04:57;7.47;;;4.15;;
29422;SDS011;16399;51.686;8.684;2022-09-30T01:07:59;8.03;;;4.10;;
29422;SDS011;16399;51.686;8.684;2022-09-30T01:14:11;9.60;;;4.80;;
29422;SDS011;16399;51.686;8.684;2022-09-30T01:17:20;7.83;;;4.72;;
29422;SDS011;16399;51.686;8.684;2022-09-30T01:23:41;8.13;;;4.65;;
29422;SDS011;16399;51.686;8.684;2022-09-30T01:26:52;9.83;;;4.58;;
29422;SDS011;16399;51.686;8.684;2022-09-30T01:30:13;12.40;;;4.90;;
29422;SDS011;16399;51.686;8.684;2022-09-30T01:33:19;11.38;;;5.10;;
29422;SDS011;16399;51.686;8.684;2022-09-30T01:36:36;9.20;;;4.80;;
29422;SDS011;16399;51.686;8.684;2022-09-30T01:39:57;6.95;;;4.53;;
29422;SDS011;16399;51.686;8.684;2022-09-30T01:43:06;10.98;;;4.85;;
29422;SDS011;16399;51.686;8.684;2022-09-30T01:46:18;7.78;;;4.90;;
29422;SDS011;16399;51.686;8.684;2022-09-30T01:49:45;7.45;;;4.67;;
29422;SDS011;16399;51.686;8.684;2022-09-30T01:53:04;6.53;;;4.65;;
29422;SDS011;16399;51.686;8.684;2022-09-30T01:56:21;7.60;;;4.70;;
29422;SDS011;16399;51.686;8.684;2022-09-30T01:59:31;8.83;;;5.03;;
29422;SDS011;16399;51.686;8.684;2022-09-30T02:02:59;6.90;;;4.60;;
29422;SDS011;16399;51.686;8.684;2022-09-30T02:06:10;6.53;;;3.90;;
29422;SDS011;16399;51.686;8.684;2022-09-30T02:09:20;7.40;;;4.58;;
29422;SDS011;16399;51.686;8.684;2022-09-30T02:12:20;8.05;;;4.10;;
29422;SDS011;16399;51.686;8.684;2022-09-30T02:15:26;7.55;;;4.37;;
29422;SDS011;16399;51.686;8.684;2022-09-30T02:18:32;10.53;;;4.90;;
29422;SDS011;16399;51.686;8.684;2022-09-30T02:21:39;7.87;;;4.30;;
29422;SDS011;16399;51.686;8.684;2022-09-30T02:24:44;6.72;;;4.08;;
29422;SDS011;16399;51.686;8.684;2022-09-30T02:27:50;6.12;;;4.00;;
29422;SDS011;16399;51.686;8.684;2022-09-30T02:30:58;6.30;;;4.15;;
29422;SDS011;16399;51.686;8.684;2022-09-30T02:34:13;6.70;;;4.42;;
29422;SDS011;16399;51.686;8.684;2022-09-30T02:37:21;5.92;;;4.30;;
29422;SDS011;16399;51.686;8.684;2022-09-30T02:41:09;6.10;;;4.22;;
29422;SDS011;16399;51.686;8.684;2022-09-30T02:43:48;6.58;;;4.50;;
29422;SDS011;16399;51.686;8.684;2022-09-30T02:47:09;6.95;;;4.65;;
29422;SDS011;16399;51.686;8.684;2022-09-30T02:50:46;6.85;;;4.20;;
29422;SDS011;16399;51.686;8.684;2022-09-30T02:57:04;7.50;;;4.50;;
29422;SDS011;16399;51.686;8.684;2022-09-30T03:00:17;6.65;;;4.47;;
29422;SDS011;16399;51.686;8.684;2022-09-30T03:03:25;8.98;;;4.78;;
29422;SDS011;16399;51.686;8.684;2022-09-30T03:06:28;10.00;;;4.58;;
29422;SDS011;16399;51.686;8.684;2022-09-30T03:09:30;6.78;;;4.22;;
29422;SDS011;16399;51.686;8.684;2022-09-30T03:25:45;6.28;;;4.42;;
29422;SDS011;16399;51.686;8.684;2022-09-30T03:28:51;7.45;;;4.95;;
29422;SDS011;16399;51.686;8.684;2022-09-30T03:39:04;7.45;;;4.37;;
29422;SDS011;16399;51.686;8.684;2022-09-30T03:42:31;7.25;;;4.58;;
29422;SDS011;16399;51.686;8.684;2022-09-30T03:45:34;7.80;;;4.60;;
29422;SDS011;16399;51.686;8.684;2022-09-30T03:48:38;6.30;;;4.33;;
29422;SDS011;16399;51.686;8.684;2022-09-30T03:51:42;6.60;;;4.40;;
29422;SDS011;16399;51.686;8.684;2022-09-30T03:54:48;9.30;;;4.80;;
29422;SDS011;16399;51.686;8.684;2022-09-30T03:57:56;7.80;;;4.67;;
29422;SDS011;16399;51.686;8.684;2022-09-30T04:00:58;10.93;;;4.60;;
29422;SDS011;16399;51.686;8.684;2022-09-30T04:04:00;8.38;;;4.78;;
29422;SDS011;16399;51.686;8.684;2022-09-30T04:07:03;8.98;;;4.25;;
29422;SDS011;16399;51.686;8.684;2022-09-30T04:10:05;7.35;;;4.55;;
29422;SDS011;16399;51.686;8.684;2022-09-30T04:13:08;9.00;;;4.70;;
29422;SDS011;16399;51.686;8.684;2022-09-30T04:16:11;8.13;;;4.35;;
29422;SDS011;16399;51.686;8.684;2022-09-30T04:19:13;7.42;;;4.42;;
29422;SDS011;16399;51.686;8.684;2022-09-30T04:22:15;10.55;;;4.45;;
29422;SDS011;16399;51.686;8.684;2022-09-30T04:25:17;7.55;;;4.60;;
29422;SDS011;16399;51.686;8.684;2022-09-30T04:28:20;6.62;;;4.12;;
29422;SDS011;16399;51.686;8.684;2022-09-30T04:31:23;6.47;;;4.40;;
29422;SDS011;16399;51.686;8.684;2022-09-30T04:34:25;7.40;;;4.80;;
29422;SDS011;16399;51.686;8.684;2022-09-30T04:37:28;8.20;;;4.75;;
29422;SDS011;16399;51.686;8.684;2022-09-30T04:40:30;5.90;;;4.35;;
29422;SDS011;16399;51.686;8.684;2022-09-30T04:43:32;8.85;;;4.90;;
29422;SDS011;16399;51.686;8.684;2022-09-30T04:46:35;10.75;;;5.92;;
29422;SDS011;16399;51.686;8.684;2022-09-30T04:49:38;7.78;;;5.00;;
29422;SDS011;16399;51.686;8.684;2022-09-30T04:52:43;7.62;;;4.30;;
29422;SDS011;16399;51.686;8.684;2022-09-30T04:55:45;7.83;;;4.60;;
29422;SDS011;16399;51.686;8.684;2022-09-30T04:58:47;7.00;;;4.47;;
29422;SDS011;16399;51.686;8.684;2022-09-30T05:01:50;8.00;;;4.50;;
29422;SDS011;16399;51.686;8.684;2022-09-30T05:04:52;8.53;;;4.92;;
29422;SDS011;16399;51.686;8.684;2022-09-30T05:08:01;8.80;;;5.20;;
29422;SDS011;16399;51.686;8.684;2022-09-30T05:11:06;10.25;;;4.75;;
29422;SDS011;16399;51.686;8.684;2022-09-30T05:14:09;7.62;;;4.65;;
29422;SDS011;16399;51.686;8.684;2022-09-30T05:17:11;7.70;;;4.60;;
29422;SDS011;16399;51.686;8.684;2022-09-30T05:20:13;7.35;;;4.10;;
29422;SDS011;16399;51.686;8.684;2022-09-30T05:23:16;7.42;;;4.75;;
29422;SDS011;16399;51.686;8.684;2022-09-30T05:26:19;6.12;;;4.05;;
29422;SDS011;16399;51.686;8.684;2022-09-30T05:29:21;10.05;;;5.05;;
29422;SDS011;16399;51.686;8.684;2022-09-30T05:32:24;6.72;;;4.50;;
29422;SDS011;16399;51.686;8.684;2022-09-30T05:35:27;9.68;;;4.97;;
29422;SDS011;16399;51.686;8.684;2022-09-30T05:38:29;8.23;;;4.40;;
29422;SDS011;16399;51.686;8.684;2022-09-30T05:41:31;7.35;;;4.80;;
29422;SDS011;16399;51.686;8.684;2022-09-30T05:44:34;8.55;;;4.62;;
29422;SDS011;16399;51.686;8.684;2022-09-30T05:47:36;10.08;;;5.22;;
29422;SDS011;16399;51.686;8.684;2022-09-30T05:50:39;8.15;;;4.80;;
29422;SDS011;16399;51.686;8.684;2022-09-30T05:53:41;10.15;;;6.03;;
29422;SDS011;16399;51.686;8.684;2022-09-30T05:56:44;9.68;;;4.87;;
29422;SDS011;16399;51.686;8.684;2022-09-30T05:59:46;7.78;;;4.80;;
29422;SDS011;16399;51.686;8.684;2022-09-30T06:02:51;7.67;;;4.62;;
29422;SDS011;16399;51.686;8.684;2022-09-30T06:05:56;9.50;;;6.55;;
29422;SDS011;16399;51.686;8.684;2022-09-30T06:08:59;12.25;;;4.90;;
29422;SDS011;16399;51.686;8.684;2022-09-30T06:12:01;13.15;;;5.10;;
29422;SDS011;16399;51.686;8.684;2022-09-30T06:15:05;8.68;;;5.03;;
29422;SDS011;16399;51.686;8.684;2022-09-30T06:18:08;7.42;;;4.40;;
29422;SDS011;16399;51.686;8.684;2022-09-30T06:21:13;8.58;;;4.58;;
29422;SDS011;16399;51.686;8.684;2022-09-30T06:24:17;14.05;;;4.80;;
29422;SDS011;16399;51.686;8.684;2022-09-30T06:27:19;16.02;;;5.33;;
29422;SDS011;16399;51.686;8.684;2022-09-30T06:30:22;8.20;;;4.97;;
29422;SDS011;16399;51.686;8.684;2022-09-30T06:33:24;10.20;;;5.35;;
29422;SDS011;16399;51.686;8.684;2022-09-30T06:36:27;10.23;;;5.03;;
29422;SDS011;16399;51.686;8.684;2022-09-30T06:39:31;7.70;;;4.95;;
29422;SDS011;16399;51.686;8.684;2022-09-30T06:42:33;10.78;;;5.05;;
29422;SDS011;16399;51.686;8.684;2022-09-30T06:45:36;10.85;;;4.40;;
29422;SDS011;16399;51.686;8.684;2022-09-30T06:48:38;11.33;;;4.85;;
29422;SDS011;16399;51.686;8.684;2022-09-30T06:51:41;7.10;;;4.22;;
29422;SDS011;16399;51.686;8.684;2022-09-30T06:54:43;8.23;;;4.47;;
29422;SDS011;16399;51.686;8.684;2022-09-30T06:57:46;7.53;;;4.65;;
29422;SDS011;16399;51.686;8.684;2022-09-30T07:01:23;8.40;;;4.67;;
29422;SDS011;16399;51.686;8.684;2022-09-30T07:04:03;10.72;;;5.50;;
29422;SDS011;16399;51.686;8.684;2022-09-30T07:07:07;12.13;;;5.17;;
29422;SDS011;16399;51.686;8.684;2022-09-30T07:10:10;8.20;;;4.47;;
29422;SDS011;16399;51.686;8.684;2022-09-30T07:13:12;10.10;;;4.95;;
29422;SDS011;16399;51.686;8.684;2022-09-30T07:16:15;8.58;;;4.92;;
29422;SDS011;16399;51.686;8.684;2022-09-30T07:19:20;8.68;;;5.22;;
29422;SDS011;16399;51.686;8.684;2022-09-30T07:22:23;7.87;;;4.17;;
29422;SDS011;16399;51.686;8.684;2022-09-30T07:25:30;7.87;;;4.17;;
29422;SDS011;16399;51.686;8.684;2022-09-30T07:28:34;6.08;;;3.85;;
29422;SDS011;16399;51.686;8.684;2022-09-30T07:31:39;11.93;;;4.10;;
29422;SDS011;16399;51.686;8.684;2022-09-30T07:34:41;7.30;;;4.03;;
29422;SDS011;16399;51.686;8.684;2022-09-30T07:37:43;7.25;;;4.05;;
29422;SDS011;16399;51.686;8.684;2022-09-30T07:40:52;8.78;;;4.03;;
29422;SDS011;16399;51.686;8.684;2022-09-30T07:43:59;6.83;;;3.87;;
29422;SDS011;16399;51.686;8.684;2022-09-30T07:47:02;7.90;;;3.95;;
29422;SDS011;16399;51.686;8.684;2022-09-30T07:50:04;5.37;;;3.65;;
29422;SDS011;16399;51.686;8.684;2022-09-30T07:53:08;17.52;;;4.28;;
29422;SDS011;16399;51.686;8.684;2022-09-30T07:56:11;15.70;;;4.03;;
29422;SDS011;16399;51.686;8.684;2022-09-30T07:59:14;13.83;;;3.45;;
29422;SDS011;16399;51.686;8.684;2022-09-30T08:02:17;7.25;;;3.85;;
29422;SDS011;16399;51.686;8.684;2022-09-30T08:05:20;12.37;;;3.85;;
29422;SDS011;16399;51.686;8.684;2022-09-30T08:08:22;6.87;;;3.50;;
29422;SDS011;16399;51.686;8.684;2022-09-30T08:11:24;5.40;;;3.70;;
29422;SDS011;16399;51.686;8.684;2022-09-30T08:14:27;6.50;;;3.72;;
29422;SDS011;16399;51.686;8.684;2022-09-30T08:17:30;6.87;;;3.92;;
29422;SDS011;16399;51.686;8.684;2022-09-30T08:20:32;7.85;;;3.42;;
29422;SDS011;16399;51.686;8.684;2022-09-30T08:23:34;12.60;;;4.03;;
29422;SDS011;16399;51.686;8.684;2022-09-30T08:26:36;8.13;;;3.92;;
29422;SDS011;16399;51.686;8.684;2022-09-30T08:29:39;10.15;;;4.60;;
29422;SDS011;16399;51.686;8.684;2022-09-30T08:32:42;5.90;;;3.83;;
29422;SDS011;16399;51.686;8.684;2022-09-30T08:35:44;8.63;;;4.00;;
29422;SDS011;16399;51.686;8.684;2022-09-30T08:38:46;10.60;;;4.95;;
29422;SDS011;16399;51.686;8.684;2022-09-30T08:48:21;12.00;;;4.62;;
29422;SDS011;16399;51.686;8.684;2022-09-30T08:51:42;7.47;;;4.28;;
29422;SDS011;16399;51.686;8.684;2022-09-30T08:54:46;8.10;;;4.17;;
29422;SDS011;16399;51.686;8.684;2022-09-30T08:57:50;9.88;;;5.12;;
29422;SDS011;16399;51.686;8.684;2022-09-30T09:00:54;9.35;;;4.30;;
29422;SDS011;16399;51.686;8.684;2022-09-30T09:03:59;10.18;;;4.83;;
29422;SDS011;16399;51.686;8.684;2022-09-30T09:07:07;9.35;;;4.22;;
29422;SDS011;16399;51.686;8.684;2022-09-30T09:13:50;11.03;;;5.22;;
29422;SDS011;16399;51.686;8.684;2022-09-30T09:17:15;7.78;;;4.83;;
29422;SDS011;16399;51.686;8.684;2022-09-30T09:20:21;9.13;;;4.80;;
29422;SDS011;16399;51.686;8.684;2022-09-30T09:23:26;13.10;;;6.33;;
29422;SDS011;16399;51.686;8.684;2022-09-30T09:26:33;12.25;;;5.95;;
29422;SDS011;16399;51.686;8.684;2022-09-30T09:33:09;9.15;;;5.35;;
29422;SDS011;16399;51.686;8.684;2022-09-30T09:42:57;9.63;;;5.25;;
29422;SDS011;16399;51.686;8.684;2022-09-30T09:46:08;8.45;;;4.83;;
29422;SDS011;16399;51.686;8.684;2022-09-30T09:49:13;7.90;;;5.20;;
29422;SDS011;16399;51.686;8.684;2022-09-30T09:55:44;8.10;;;4.85;;
29422;SDS011;16399;51.686;8.684;2022-09-30T09:59:02;11.70;;;5.28;;
29422;SDS011;16399;51.686;8.684;2022-09-30T10:02:20;9.40;;;5.55;;
29422;SDS011;16399;51.686;8.684;2022-09-30T10:05:25;9.18;;;5.17;;
29422;SDS011;16399;51.686;8.684;2022-09-30T10:08:31;8.30;;;4.67;;
29422;SDS011;16399;51.686;8.684;2022-09-30T10:11:35;9.48;;;4.67;;
29422;SDS011;16399;51.686;8.684;2022-09-30T10:14:38;11.43;;;4.78;;
29422;SDS011;16399;51.686;8.684;2022-09-30T10:17:52;10.90;;;4.45;;
29422;SDS011;16399;51.686;8.684;2022-09-30T10:21:07;7.55;;;4.15;;
29422;SDS011;16399;51.686;8.684;2022-09-30T10:27:31;9.65;;;4.30;;
29422;SDS011;16399;51.686;8.684;2022-09-30T10:30:42;8.37;;;3.57;;
29422;SDS011;16399;51.686;8.684;2022-09-30T10:34:02;8.88;;;3.85;;
29422;SDS011;16399;51.686;8.684;2022-09-30T10:40:21;9.18;;;4.62;;
29422;SDS011;16399;51.686;8.684;2022-09-30T10:43:28;9.43;;;4.90;;
29422;SDS011;16399;51.686;8.684;2022-09-30T10:46:33;9.10;;;3.95;;
29422;SDS011;16399;51.686;8.684;2022-09-30T10:49:40;9.08;;;4.55;;
29422;SDS011;16399;51.686;8.684;2022-09-30T10:52:52;9.00;;;4.20;;
29422;SDS011;16399;51.686;8.684;2022-09-30T10:56:04;14.75;;;4.62;;
29422;SDS011;16399;51.686;8.684;2022-09-30T10:59:10;10.95;;;4.53;;
29422;SDS011;16399;51.686;8.684;2022-09-30T11:02:16;8.98;;;5.00;;
29422;SDS011;16399;51.686;8.684;2022-09-30T11:05:37;9.33;;;4.83;;
29422;SDS011;16399;51.686;8.684;2022-09-30T11:08:47;12.35;;;4.53;;
29422;SDS011;16399;51.686;8.684;2022-09-30T11:11:56;8.80;;;4.47;;
29422;SDS011;16399;51.686;8.684;2022-09-30T11:15:07;11.57;;;3.92;;
29422;SDS011;16399;51.686;8.684;2022-09-30T11:21:38;5.60;;;3.17;;
29422;SDS011;16399;51.686;8.684;2022-09-30T11:24:45;6.22;;;2.72;;
29422;SDS011;16399;51.686;8.684;2022-09-30T11:28:04;6.67;;;2.85;;
29422;SDS011;16399;51.686;8.684;2022-09-30T11:31:26;7.83;;;3.20;;
29422;SDS011;16399;51.686;8.684;2022-09-30T11:34:55;5.60;;;3.22;;
29422;SDS011;16399;51.686;8.684;2022-09-30T11:38:10;7.20;;;3.35;;
29422;SDS011;16399;51.686;8.684;2022-09-30T11:41:32;8.65;;;3.00;;
29422;SDS011;16399;51.686;8.684;2022-09-30T11:44:42;5.42;;;2.60;;
29422;SDS011;16399;51.686;8.684;2022-09-30T11:47:52;9.28;;;2.60;;
29422;SDS011;16399;51.686;8.684;2022-09-30T12:00:40;7.55;;;2.77;;
29422;SDS011;16399;51.686;8.684;2022-09-30T12:03:59;7.85;;;2.95;;
29422;SDS011;16399;51.686;8.684;2022-09-30T12:07:00;6.85;;;3.42;;
29422;SDS011;16399;51.686;8.684;2022-09-30T12:10:12;8.05;;;2.90;;
29422;SDS011;16399;51.686;8.684;2022-09-30T12:13:20;7.75;;;3.40;;
29422;SDS011;16399;51.686;8.684;2022-09-30T12:16:29;5.30;;;2.70;;
29422;SDS011;16399;51.686;8.684;2022-09-30T12:19:39;7.58;;;3.60;;
29422;SDS011;16399;51.686;8.684;2022-09-30T12:22:43;8.73;;;2.95;;
29422;SDS011;16399;51.686;8.684;2022-09-30T12:26:01;4.72;;;2.12;;
29422;SDS011;16399;51.686;8.684;2022-09-30T12:29:05;3.50;;;1.73;;
29422;SDS011;16399;51.686;8.684;2022-09-30T12:36:36;4.67;;;1.72;;
29422;SDS011;16399;51.686;8.684;2022-09-30T12:43:12;4.47;;;1.80;;
29422;SDS011;16399;51.686;8.684;2022-09-30T12:49:23;4.05;;;1.90;;
29422;SDS011;16399;51.686;8.684;2022-09-30T12:52:30;3.87;;;2.05;;
29422;SDS011;16399;51.686;8.684;2022-09-30T12:55:37;5.15;;;1.98;;
29422;SDS011;16399;51.686;8.684;2022-09-30T12:58:42;3.30;;;1.80;;
29422;SDS011;16399;51.686;8.684;2022-09-30T13:01:49;4.40;;;1.82;;
29422;SDS011;16399;51.686;8.684;2022-09-30T13:04:52;7.35;;;1.75;;
29422;SDS011;16399;51.686;8.684;2022-09-30T13:11:20;5.50;;;2.00;;
29422;SDS011;16399;51.686;8.684;2022-09-30T13:17:37;7.10;;;2.50;;
29422;SDS011;16399;51.686;8.684;2022-09-30T13:20:53;4.75;;;2.45;;
29422;SDS011;16399;51.686;8.684;2022-09-30T13:24:07;6.85;;;2.20;;
29422;SDS011;16399;51.686;8.684;2022-09-30T13:27:12;8.30;;;1.90;;
29422;SDS011;16399;51.686;8.684;2022-09-30T13:33:39;5.40;;;1.90;;
29422;SDS011;16399;51.686;8.684;2022-09-30T13:36:55;4.83;;;1.77;;
29422;SDS011;16399;51.686;8.684;2022-09-30T13:39:44;4.15;;;1.50;;
29422;SDS011;16399;51.686;8.684;2022-09-30T13:42:49;4.00;;;1.57;;
29422;SDS011;16399;51.686;8.684;2022-09-30T13:45:54;5.85;;;1.77;;
29422;SDS011;16399;51.686;8.684;2022-09-30T13:48:59;4.97;;;1.62;;
29422;SDS011;16399;51.686;8.684;2022-09-30T13:52:05;4.08;;;1.80;;
29422;SDS011;16399;51.686;8.684;2022-09-30T13:55:16;3.27;;;1.47;;
29422;SDS011;16399;51.686;8.684;2022-09-30T14:02:17;6.15;;;1.15;;
29422;SDS011;16399;51.686;8.684;2022-09-30T14:05:26;3.02;;;1.30;;
29422;SDS011;16399;51.686;8.684;2022-09-30T14:08:42;3.52;;;1.10;;
29422;SDS011;16399;51.686;8.684;2022-09-30T14:15:06;2.95;;;1.30;;
29422;SDS011;16399;51.686;8.684;2022-09-30T14:21:48;2.95;;;0.98;;
29422;SDS011;16399;51.686;8.684;2022-09-30T14:24:58;3.75;;;1.35;;
29422;SDS011;16399;51.686;8.684;2022-09-30T14:28:08;2.72;;;0.90;;
29422;SDS011;16399;51.686;8.684;2022-09-30T14:31:13;2.55;;;0.98;;
29422;SDS011;16399;51.686;8.684;2022-09-30T14:34:16;4.75;;;1.42;;
29422;SDS011;16399;51.686;8.684;2022-09-30T14:40:28;3.25;;;1.27;;
29422;SDS011;16399;51.686;8.684;2022-09-30T14:43:36;3.33;;;1.37;;
29422;SDS011;16399;51.686;8.684;2022-09-30T14:46:41;4.55;;;1.27;;
29422;SDS011;16399;51.686;8.684;2022-09-30T14:49:48;4.90;;;1.47;;
29422;SDS011;16399;51.686;8.684;2022-09-30T14:52:51;3.10;;;1.10;;
29422;SDS011;16399;51.686;8.684;2022-09-30T14:55:55;3.00;;;0.98;;
29422;SDS011;16399;51.686;8.684;2022-09-30T14:58:58;2.87;;;0.90;;
29422;SDS011;16399;51.686;8.684;2022-09-30T15:02:03;4.78;;;0.80;;
29422;SDS011;16399;51.686;8.684;2022-09-30T15:05:13;2.30;;;0.68;;
29422;SDS011;16399;51.686;8.684;2022-09-30T15:08:19;2.47;;;1.00;;
29422;SDS011;16399;51.686;8.684;2022-09-30T15:11:23;3.00;;;0.90;;
29422;SDS011;16399;51.686;8.684;2022-09-30T15:14:29;2.92;;;0.80;;
29422;SDS011;16399;51.686;8.684;2022-09-30T15:17:35;2.47;;;0.80;;
29422;SDS011;16399;51.686;8.684;2022-09-30T15:20:38;4.22;;;1.07;;
29422;SDS011;16399;51.686;8.684;2022-09-30T15:23:49;4.87;;;0.70;;
29422;SDS011;16399;51.686;8.684;2022-09-30T15:26:53;4.15;;;0.80;;
29422;SDS011;16399;51.686;8.684;2022-09-30T15:29:57;2.17;;;0.78;;
29422;SDS011;16399;51.686;8.684;2022-09-30T15:33:02;3.22;;;0.93;;
29422;SDS011;16399;51.686;8.684;2022-09-30T15:36:06;3.35;;;0.88;;
29422;SDS011;16399;51.686;8.684;2022-09-30T15:39:18;1.47;;;0.80;;
29422;SDS011;16399;51.686;8.684;2022-09-30T15:42:29;2.72;;;0.80;;
29422;SDS011;16399;51.686;8.684;2022-09-30T15:45:50;5.85;;;0.68;;
29422;SDS011;16399;51.686;8.684;2022-09-30T15:48:57;1.72;;;0.70;;
29422;SDS011;16399;51.686;8.684;2022-09-30T15:52:47;1.30;;;0.60;;
29422;SDS011;16399;51.686;8.684;2022-09-30T15:55:38;1.05;;;0.53;;
29422;SDS011;16399;51.686;8.684;2022-09-30T16:02:07;2.22;;;0.53;;
29422;SDS011;16399;51.686;8.684;2022-09-30T16:05:10;4.12;;;0.80;;
29422;SDS011;16399;51.686;8.684;2022-09-30T16:08:13;2.12;;;0.68;;
29422;SDS011;16399;51.686;8.684;2022-09-30T16:11:27;1.95;;;0.53;;
29422;SDS011;16399;51.686;8.684;2022-09-30T16:14:41;2.02;;;0.75;;
29422;SDS011;16399;51.686;8.684;2022-09-30T16:17:53;2.62;;;1.05;;
29422;SDS011;16399;51.686;8.684;2022-09-30T16:21:03;1.47;;;0.70;;
29422;SDS011;16399;51.686;8.684;2022-09-30T16:27:31;2.00;;;0.80;;
29422;SDS011;16399;51.686;8.684;2022-09-30T16:30:35;2.08;;;0.60;;
29422;SDS011;16399;51.686;8.684;2022-09-30T16:33:43;2.05;;;0.50;;
29422;SDS011;16399;51.686;8.684;2022-09-30T16:36:46;2.33;;;0.70;;
29422;SDS011;16399;51.686;8.684;2022-09-30T16:39:48;1.37;;;0.60;;
29422;SDS011;16399;51.686;8.684;2022-09-30T16:42:51;1.37;;;0.70;;
29422;SDS011;16399;51.686;8.684;2022-09-30T16:45:56;3.12;;;1.02;;
29422;SDS011;16399;51.686;8.684;2022-09-30T16:49:20;2.75;;;0.60;;
29422;SDS011;16399;51.686;8.684;2022-09-30T16:52:13;3.37;;;0.60;;
29422;SDS011;16399;51.686;8.684;2022-09-30T16:55:16;2.15;;;0.82;;
29422;SDS011;16399;51.686;8.684;2022-09-30T16:58:18;4.92;;;1.35;;
29422;SDS011;16399;51.686;8.684;2022-09-30T17:01:21;5.15;;;2.67;;
29422;SDS011;16399;51.686;8.684;2022-09-30T17:04:25;9.25;;;3.72;;
29422;SDS011;16399;51.686;8.684;2022-09-30T17:07:28;9.70;;;5.53;;
29422;SDS011;16399;51.686;8.684;2022-09-30T17:10:31;7.65;;;3.98;;
29422;SDS011;16399;51.686;8.684;2022-09-30T17:13:35;7.25;;;2.95;;
29422;SDS011;16399;51.686;8.684;2022-09-30T17:16:37;5.17;;;1.95;;
29422;SDS011;16399;51.686;8.684;2022-09-30T17:19:40;2.77;;;1.22;;
29422;SDS011;16399;51.686;8.684;2022-09-30T17:22:43;2.72;;;1.10;;
29422;SDS011;16399;51.686;8.684;2022-09-30T17:25:46;2.52;;;1.30;;
29422;SDS011;16399;51.686;8.684;2022-09-30T17:28:48;3.20;;;1.50;;
29422;SDS011;16399;51.686;8.684;2022-09-30T17:31:51;5.70;;;1.92;;
29422;SDS011;16399;51.686;8.684;2022-09-30T17:34:54;5.47;;;2.27;;
29422;SDS011;16399;51.686;8.684;2022-09-30T17:37:56;3.72;;;1.87;;
29422;SDS011;16399;51.686;8.684;2022-09-30T17:40:59;2.77;;;1.25;;
29422;SDS011;16399;51.686;8.684;2022-09-30T17:44:20;3.10;;;1.35;;
29422;SDS011;16399;51.686;8.684;2022-09-30T17:47:22;6.65;;;1.95;;
29422;SDS011;16399;51.686;8.684;2022-09-30T17:50:26;7.05;;;2.02;;
29422;SDS011;16399;51.686;8.684;2022-09-30T17:53:28;5.65;;;2.15;;
29422;SDS011;16399;51.686;8.684;2022-09-30T17:56:31;3.12;;;1.65;;
29422;SDS011;16399;51.686;8.684;2022-09-30T17:59:34;10.82;;;3.77;;
29422;SDS011;16399;51.686;8.684;2022-09-30T18:02:37;8.05;;;4.30;;
29422;SDS011;16399;51.686;8.684;2022-09-30T18:05:41;6.10;;;2.20;;
29422;SDS011;16399;51.686;8.684;2022-09-30T18:08:48;5.03;;;1.77;;
29422;SDS011;16399;51.686;8.684;2022-09-30T18:11:52;3.05;;;1.40;;
29422;SDS011;16399;51.686;8.684;2022-09-30T18:14:54;3.52;;;1.50;;
29422;SDS011;16399;51.686;8.684;2022-09-30T18:17:58;3.97;;;1.30;;
29422;SDS011;16399;51.686;8.684;2022-09-30T18:21:00;3.80;;;1.20;;
29422;SDS011;16399;51.686;8.684;2022-09-30T18:24:03;2.50;;;1.12;;
29422;SDS011;16399;51.686;8.684;2022-09-30T18:27:07;4.12;;;1.10;;
29422;SDS011;16399;51.686;8.684;2022-09-30T18:30:10;4.42;;;1.20;;
29422;SDS011;16399;51.686;8.684;2022-09-30T18:33:13;7.65;;;3.40;;
29422;SDS011;16399;51.686;8.684;2022-09-30T18:36:16;8.23;;;3.80;;
29422;SDS011;16399;51.686;8.684;2022-09-30T18:39:20;3.42;;;1.40;;
29422;SDS011;16399;51.686;8.684;2022-09-30T18:42:23;2.87;;;1.07;;
29422;SDS011;16399;51.686;8.684;2022-09-30T18:45:26;4.42;;;1.55;;
29422;SDS011;16399;51.686;8.684;2022-09-30T18:48:34;3.75;;;1.30;;
29422;SDS011;16399;51.686;8.684;2022-09-30T18:51:37;5.42;;;2.15;;
29422;SDS011;16399;51.686;8.684;2022-09-30T18:54:39;4.58;;;1.70;;
29422;SDS011;16399;51.686;8.684;2022-09-30T18:57:42;4.22;;;1.37;;
29422;SDS011;16399;51.686;8.684;2022-09-30T19:00:46;2.08;;;1.20;;
29422;SDS011;16399;51.686;8.684;2022-09-30T19:03:48;6.80;;;1.82;;
29422;SDS011;16399;51.686;8.684;2022-09-30T19:06:52;6.55;;;1.40;;
29422;SDS011;16399;51.686;8.684;2022-09-30T19:09:54;3.08;;;1.17;;
29422;SDS011;16399;51.686;8.684;2022-09-30T19:12:56;5.20;;;1.52;;
29422;SDS011;16399;51.686;8.684;2022-09-30T19:16:01;2.73;;;1.30;;
29422;SDS011;16399;51.686;8.684;2022-09-30T19:19:05;3.20;;;1.33;;
29422;SDS011;16399;51.686;8.684;2022-09-30T19:22:11;11.20;;;4.37;;
29422;SDS011;16399;51.686;8.684;2022-09-30T19:25:13;6.20;;;2.42;;
29422;SDS011;16399;51.686;8.684;2022-09-30T19:28:15;4.53;;;1.95;;
29422;SDS011;16399;51.686;8.684;2022-09-30T19:31:20;7.30;;;2.57;;
29422;SDS011;16399;51.686;8.684;2022-09-30T19:34:23;2.65;;;1.37;;
29422;SDS011;16399;51.686;8.684;2022-09-30T19:37:26;4.15;;;1.55;;
29422;SDS011;16399;51.686;8.684;2022-09-30T19:40:28;4.45;;;1.80;;
29422;SDS011;16399;51.686;8.684;2022-09-30T19:43:32;9.95;;;2.20;;
29422;SDS011;16399;51.686;8.684;2022-09-30T19:46:35;5.35;;;2.08;;
29422;SDS011;16399;51.686;8.684;2022-09-30T19:49:37;4.70;;;1.98;;
29422;SDS011;16399;51.686;8.684;2022-09-30T19:52:40;5.58;;;1.98;;
29422;SDS011;16399;51.686;8.684;2022-09-30T19:55:42;5.67;;;1.87;;
29422;SDS011;16399;51.686;8.684;2022-09-30T19:58:46;6.25;;;2.17;;
29422;SDS011;16399;51.686;8.684;2022-09-30T20:01:50;9.73;;;6.03;;
29422;SDS011;16399;51.686;8.684;2022-09-30T20:04:52;5.80;;;3.05;;
29422;SDS011;16399;51.686;8.684;2022-09-30T20:07:54;8.83;;;5.45;;
29422;SDS011;16399;51.686;8.684;2022-09-30T20:11:00;5.85;;;3.20;;
29422;SDS011;16399;51.686;8.684;2022-09-30T20:14:05;5.67;;;2.42;;
29422;SDS011;16399;51.686;8.684;2022-09-30T20:17:26;5.92;;;3.40;;
29422;SDS011;16399;51.686;8.684;2022-09-30T20:20:29;5.58;;;2.80;;
29422;SDS011;16399;51.686;8.684;2022-09-30T20:23:38;7.90;;;2.15;;
29422;SDS011;16399;51.686;8.684;2022-09-30T20:26:42;5.78;;;2.70;;
29422;SDS011;16399;51.686;8.684;2022-09-30T20:29:45;6.25;;;2.10;;
29422;SDS011;16399;51.686;8.684;2022-09-30T20:32:47;3.42;;;1.60;;
29422;SDS011;16399;51.686;8.684;2022-09-30T20:35:49;6.03;;;2.20;;
29422;SDS011;16399;51.686;8.684;2022-09-30T20:38:52;4.78;;;2.30;;